sensor_id;sensor_type;location;lat;lon;timestamp;P1;durP1;ratioP1;P2;durP2;ratioP2
40290;SDS011;26000;48.304;13.626;2023-02-28T00:00:24;12.93;;;7.75;;
40290;SDS011;26000;48.304;13.626;2023-02-28T00:02:50;11.13;;;7.30;;
40290;SDS011;26000;48.304;13.626;2023-02-28T00:05:17;11.93;;;7.20;;
40290;SDS011;26000;48.304;13.626;2023-02-28T00:07:44;12.40;;;7.90;;
40290;SDS011;26000;48.304;13.626;2023-02-28T00:10:11;10.93;;;7.53;;
40290;SDS011;26000;48.304;13.626;2023-02-28T00:12:38;12.88;;;7.70;;
40290;SDS011;26000;48.304;13.626;2023-02-28T00:15:08;13.65;;;8.13;;
40290;SDS011;26000;48.304;13.626;2023-02-28T00:17:35;13.18;;;8.30;;
40290;SDS011;26000;48.304;13.626;2023-02-28T00:20:02;12.82;;;7.93;;
40290;SDS011;26000;48.304;13.626;2023-02-28T00:22:29;14.52;;;9.10;;
40290;SDS011;26000;48.304;13.626;2023-02-28T00:24:55;11.80;;;8.18;;
40290;SDS011;26000;48.304;13.626;2023-02-28T00:27:21;12.25;;;8.07;;
40290;SDS011;26000;48.304;13.626;2023-02-28T00:29:47;13.50;;;8.27;;
40290;SDS011;26000;48.304;13.626;2023-02-28T00:32:12;14.82;;;8.98;;
40290;SDS011;26000;48.304;13.626;2023-02-28T00:34:38;14.40;;;9.40;;
40290;SDS011;26000;48.304;13.626;2023-02-28T00:37:07;15.35;;;9.60;;
40290;SDS011;26000;48.304;13.626;2023-02-28T00:39:35;16.83;;;10.00;;
40290;SDS011;26000;48.304;13.626;2023-02-28T00:42:04;16.77;;;10.05;;
40290;SDS011;26000;48.304;13.626;2023-02-28T00:44:30;17.13;;;10.13;;
40290;SDS011;26000;48.304;13.626;2023-02-28T00:46:56;17.25;;;10.25;;
40290;SDS011;26000;48.304;13.626;2023-02-28T00:49:23;15.30;;;10.00;;
40290;SDS011;26000;48.304;13.626;2023-02-28T00:51:49;16.58;;;10.27;;
40290;SDS011;26000;48.304;13.626;2023-02-28T00:54:15;15.98;;;9.90;;
40290;SDS011;26000;48.304;13.626;2023-02-28T00:56:41;14.38;;;10.10;;
40290;SDS011;26000;48.304;13.626;2023-02-28T00:59:07;19.63;;;11.02;;
40290;SDS011;26000;48.304;13.626;2023-02-28T01:01:33;15.25;;;10.07;;
40290;SDS011;26000;48.304;13.626;2023-02-28T01:03:59;17.05;;;10.63;;
40290;SDS011;26000;48.304;13.626;2023-02-28T01:06:24;16.60;;;11.25;;
40290;SDS011;26000;48.304;13.626;2023-02-28T01:08:50;23.00;;;10.93;;
40290;SDS011;26000;48.304;13.626;2023-02-28T01:11:16;19.02;;;10.98;;
40290;SDS011;26000;48.304;13.626;2023-02-28T01:13:43;15.82;;;10.85;;
40290;SDS011;26000;48.304;13.626;2023-02-28T01:16:10;15.23;;;10.70;;
40290;SDS011;26000;48.304;13.626;2023-02-28T01:18:36;18.75;;;11.57;;
40290;SDS011;26000;48.304;13.626;2023-02-28T01:21:06;22.00;;;11.43;;
40290;SDS011;26000;48.304;13.626;2023-02-28T01:23:33;20.92;;;12.05;;
40290;SDS011;26000;48.304;13.626;2023-02-28T01:26:10;16.23;;;10.98;;
40290;SDS011;26000;48.304;13.626;2023-02-28T01:28:37;21.27;;;12.00;;
40290;SDS011;26000;48.304;13.626;2023-02-28T01:31:03;23.05;;;11.55;;
40290;SDS011;26000;48.304;13.626;2023-02-28T01:33:29;20.67;;;12.40;;
40290;SDS011;26000;48.304;13.626;2023-02-28T01:36:11;22.13;;;12.57;;
40290;SDS011;26000;48.304;13.626;2023-02-28T01:38:39;18.88;;;12.30;;
40290;SDS011;26000;48.304;13.626;2023-02-28T01:41:05;20.13;;;12.27;;
40290;SDS011;26000;48.304;13.626;2023-02-28T01:46:10;21.50;;;12.35;;
40290;SDS011;26000;48.304;13.626;2023-02-28T01:48:38;22.58;;;13.20;;
40290;SDS011;26000;48.304;13.626;2023-02-28T01:51:09;22.08;;;12.77;;
40290;SDS011;26000;48.304;13.626;2023-02-28T01:53:39;18.58;;;12.45;;
40290;SDS011;26000;48.304;13.626;2023-02-28T01:56:09;18.75;;;12.05;;
40290;SDS011;26000;48.304;13.626;2023-02-28T01:58:46;20.08;;;13.07;;
40290;SDS011;26000;48.304;13.626;2023-02-28T02:01:12;20.08;;;12.10;;
40290;SDS011;26000;48.304;13.626;2023-02-28T02:03:46;18.25;;;11.57;;
40290;SDS011;26000;48.304;13.626;2023-02-28T02:06:24;22.67;;;13.30;;
40290;SDS011;26000;48.304;13.626;2023-02-28T02:08:54;18.55;;;12.30;;
40290;SDS011;26000;48.304;13.626;2023-02-28T02:11:20;20.50;;;12.98;;
40290;SDS011;26000;48.304;13.626;2023-02-28T02:13:55;18.88;;;12.45;;
40290;SDS011;26000;48.304;13.626;2023-02-28T02:27:48;19.75;;;12.32;;
40290;SDS011;26000;48.304;13.626;2023-02-28T02:38:20;23.70;;;13.25;;
40290;SDS011;26000;48.304;13.626;2023-02-28T02:46:26;25.27;;;13.35;;
40290;SDS011;26000;48.304;13.626;2023-02-28T02:48:57;20.13;;;13.02;;
40290;SDS011;26000;48.304;13.626;2023-02-28T02:51:25;20.23;;;12.70;;
40290;SDS011;26000;48.304;13.626;2023-02-28T02:54:12;22.13;;;13.63;;
40290;SDS011;26000;48.304;13.626;2023-02-28T02:56:43;21.55;;;13.38;;
40290;SDS011;26000;48.304;13.626;2023-02-28T02:59:12;19.60;;;12.68;;
40290;SDS011;26000;48.304;13.626;2023-02-28T03:01:40;20.90;;;12.98;;
40290;SDS011;26000;48.304;13.626;2023-02-28T03:04:09;21.05;;;13.18;;
40290;SDS011;26000;48.304;13.626;2023-02-28T03:06:38;23.80;;;13.05;;
40290;SDS011;26000;48.304;13.626;2023-02-28T03:09:03;19.88;;;12.48;;
40290;SDS011;26000;48.304;13.626;2023-02-28T03:11:29;19.45;;;12.30;;
40290;SDS011;26000;48.304;13.626;2023-02-28T03:19:30;23.90;;;12.52;;
40290;SDS011;26000;48.304;13.626;2023-02-28T03:27:24;19.35;;;12.65;;
40290;SDS011;26000;48.304;13.626;2023-02-28T03:30:10;19.17;;;12.57;;
40290;SDS011;26000;48.304;13.626;2023-02-28T03:32:52;19.00;;;11.98;;
40290;SDS011;26000;48.304;13.626;2023-02-28T03:35:41;21.05;;;12.35;;
40290;SDS011;26000;48.304;13.626;2023-02-28T03:41:10;18.65;;;11.90;;
40290;SDS011;26000;48.304;13.626;2023-02-28T03:43:41;20.35;;;11.73;;
40290;SDS011;26000;48.304;13.626;2023-02-28T03:46:12;19.67;;;11.90;;
40290;SDS011;26000;48.304;13.626;2023-02-28T03:48:48;21.45;;;12.23;;
40290;SDS011;26000;48.304;13.626;2023-02-28T03:51:19;20.05;;;12.02;;
40290;SDS011;26000;48.304;13.626;2023-02-28T03:53:49;18.80;;;11.80;;
40290;SDS011;26000;48.304;13.626;2023-02-28T03:56:22;20.90;;;12.07;;
40290;SDS011;26000;48.304;13.626;2023-02-28T04:01:30;19.88;;;12.38;;
40290;SDS011;26000;48.304;13.626;2023-02-28T04:04:03;21.52;;;13.18;;
40290;SDS011;26000;48.304;13.626;2023-02-28T04:06:31;20.63;;;13.27;;
40290;SDS011;26000;48.304;13.626;2023-02-28T04:08:58;21.52;;;13.35;;
40290;SDS011;26000;48.304;13.626;2023-02-28T04:11:29;23.23;;;14.27;;
40290;SDS011;26000;48.304;13.626;2023-02-28T04:14:00;23.67;;;13.30;;
40290;SDS011;26000;48.304;13.626;2023-02-28T04:16:27;21.23;;;13.05;;
40290;SDS011;26000;48.304;13.626;2023-02-28T04:18:54;21.50;;;12.73;;
40290;SDS011;26000;48.304;13.626;2023-02-28T04:21:26;20.40;;;13.07;;
40290;SDS011;26000;48.304;13.626;2023-02-28T04:23:56;20.55;;;12.52;;
40290;SDS011;26000;48.304;13.626;2023-02-28T04:26:25;18.90;;;12.05;;
40290;SDS011;26000;48.304;13.626;2023-02-28T04:28:55;19.05;;;12.52;;
40290;SDS011;26000;48.304;13.626;2023-02-28T04:31:21;25.52;;;12.95;;
40290;SDS011;26000;48.304;13.626;2023-02-28T04:33:47;20.80;;;12.40;;
40290;SDS011;26000;48.304;13.626;2023-02-28T04:36:12;20.48;;;12.02;;
40290;SDS011;26000;48.304;13.626;2023-02-28T04:38:39;19.80;;;12.65;;
40290;SDS011;26000;48.304;13.626;2023-02-28T04:41:05;23.05;;;13.25;;
40290;SDS011;26000;48.304;13.626;2023-02-28T04:43:31;19.90;;;12.70;;
40290;SDS011;26000;48.304;13.626;2023-02-28T04:45:58;21.50;;;12.98;;
40290;SDS011;26000;48.304;13.626;2023-02-28T04:48:27;19.67;;;12.43;;
40290;SDS011;26000;48.304;13.626;2023-02-28T04:50:54;23.33;;;13.15;;
40290;SDS011;26000;48.304;13.626;2023-02-28T04:53:20;20.85;;;11.75;;
40290;SDS011;26000;48.304;13.626;2023-02-28T04:55:46;20.25;;;12.50;;
40290;SDS011;26000;48.304;13.626;2023-02-28T04:58:15;22.33;;;13.00;;
40290;SDS011;26000;48.304;13.626;2023-02-28T05:00:41;21.83;;;12.77;;
40290;SDS011;26000;48.304;13.626;2023-02-28T05:03:06;21.83;;;12.30;;
40290;SDS011;26000;48.304;13.626;2023-02-28T05:05:32;22.80;;;12.80;;
40290;SDS011;26000;48.304;13.626;2023-02-28T05:07:57;22.27;;;12.18;;
40290;SDS011;26000;48.304;13.626;2023-02-28T05:10:23;19.70;;;12.27;;
40290;SDS011;26000;48.304;13.626;2023-02-28T05:12:49;22.98;;;13.63;;
40290;SDS011;26000;48.304;13.626;2023-02-28T05:15:15;21.15;;;13.02;;
40290;SDS011;26000;48.304;13.626;2023-02-28T05:17:41;23.70;;;13.43;;
40290;SDS011;26000;48.304;13.626;2023-02-28T05:20:08;20.92;;;12.77;;
40290;SDS011;26000;48.304;13.626;2023-02-28T05:22:35;20.73;;;12.60;;
40290;SDS011;26000;48.304;13.626;2023-02-28T05:25:02;20.48;;;12.32;;
40290;SDS011;26000;48.304;13.626;2023-02-28T05:27:29;23.30;;;12.27;;
40290;SDS011;26000;48.304;13.626;2023-02-28T05:29:56;24.45;;;12.52;;
40290;SDS011;26000;48.304;13.626;2023-02-28T05:32:21;17.65;;;11.60;;
40290;SDS011;26000;48.304;13.626;2023-02-28T05:34:47;19.75;;;11.93;;
40290;SDS011;26000;48.304;13.626;2023-02-28T05:37:13;19.42;;;12.77;;
40290;SDS011;26000;48.304;13.626;2023-02-28T05:39:39;22.17;;;12.73;;
40290;SDS011;26000;48.304;13.626;2023-02-28T05:42:05;23.17;;;12.40;;
40290;SDS011;26000;48.304;13.626;2023-02-28T05:44:31;21.38;;;12.82;;
40290;SDS011;26000;48.304;13.626;2023-02-28T05:46:57;20.25;;;11.93;;
40290;SDS011;26000;48.304;13.626;2023-02-28T05:49:22;19.10;;;11.88;;
40290;SDS011;26000;48.304;13.626;2023-02-28T05:51:48;20.80;;;11.98;;
40290;SDS011;26000;48.304;13.626;2023-02-28T05:54:14;21.02;;;13.02;;
40290;SDS011;26000;48.304;13.626;2023-02-28T05:56:39;21.58;;;12.63;;
40290;SDS011;26000;48.304;13.626;2023-02-28T05:59:08;22.55;;;12.55;;
40290;SDS011;26000;48.304;13.626;2023-02-28T06:04:08;19.27;;;12.38;;
40290;SDS011;26000;48.304;13.626;2023-02-28T06:06:35;17.90;;;12.07;;
40290;SDS011;26000;48.304;13.626;2023-02-28T06:09:02;21.23;;;13.05;;
40290;SDS011;26000;48.304;13.626;2023-02-28T06:11:28;22.17;;;13.10;;
40290;SDS011;26000;48.304;13.626;2023-02-28T06:13:54;21.05;;;12.43;;
40290;SDS011;26000;48.304;13.626;2023-02-28T06:16:21;21.20;;;11.88;;
40290;SDS011;26000;48.304;13.626;2023-02-28T06:18:47;20.40;;;12.10;;
40290;SDS011;26000;48.304;13.626;2023-02-28T06:21:13;21.45;;;12.90;;
40290;SDS011;26000;48.304;13.626;2023-02-28T06:23:39;20.23;;;12.18;;
40290;SDS011;26000;48.304;13.626;2023-02-28T06:26:04;20.10;;;11.63;;
40290;SDS011;26000;48.304;13.626;2023-02-28T06:28:30;18.55;;;11.32;;
40290;SDS011;26000;48.304;13.626;2023-02-28T06:30:56;19.65;;;12.23;;
40290;SDS011;26000;48.304;13.626;2023-02-28T06:33:22;20.92;;;12.57;;
40290;SDS011;26000;48.304;13.626;2023-02-28T06:35:51;19.58;;;12.00;;
40290;SDS011;26000;48.304;13.626;2023-02-28T06:38:17;22.45;;;13.38;;
40290;SDS011;26000;48.304;13.626;2023-02-28T06:40:43;18.10;;;11.43;;
40290;SDS011;26000;48.304;13.626;2023-02-28T06:43:10;19.77;;;12.85;;
40290;SDS011;26000;48.304;13.626;2023-02-28T06:45:42;24.50;;;13.23;;
40290;SDS011;26000;48.304;13.626;2023-02-28T06:48:08;22.83;;;12.25;;
40290;SDS011;26000;48.304;13.626;2023-02-28T06:50:35;21.42;;;12.45;;
40290;SDS011;26000;48.304;13.626;2023-02-28T06:53:01;20.05;;;12.27;;
40290;SDS011;26000;48.304;13.626;2023-02-28T06:55:26;22.48;;;12.23;;
40290;SDS011;26000;48.304;13.626;2023-02-28T06:57:52;17.75;;;12.40;;
40290;SDS011;26000;48.304;13.626;2023-02-28T07:00:17;19.48;;;12.63;;
40290;SDS011;26000;48.304;13.626;2023-02-28T07:02:43;21.38;;;12.85;;
40290;SDS011;26000;48.304;13.626;2023-02-28T07:05:09;20.83;;;12.05;;
40290;SDS011;26000;48.304;13.626;2023-02-28T07:07:35;19.45;;;12.13;;
40290;SDS011;26000;48.304;13.626;2023-02-28T07:10:03;21.60;;;12.18;;
40290;SDS011;26000;48.304;13.626;2023-02-28T07:12:28;20.90;;;12.77;;
40290;SDS011;26000;48.304;13.626;2023-02-28T07:14:54;19.27;;;12.57;;
40290;SDS011;26000;48.304;13.626;2023-02-28T07:17:20;20.45;;;12.20;;
40290;SDS011;26000;48.304;13.626;2023-02-28T07:19:46;21.67;;;12.38;;
40290;SDS011;26000;48.304;13.626;2023-02-28T07:22:11;20.70;;;12.27;;
40290;SDS011;26000;48.304;13.626;2023-02-28T07:24:37;22.73;;;13.02;;
40290;SDS011;26000;48.304;13.626;2023-02-28T07:27:03;21.02;;;11.70;;
40290;SDS011;26000;48.304;13.626;2023-02-28T07:29:29;17.73;;;12.02;;
40290;SDS011;26000;48.304;13.626;2023-02-28T07:31:54;19.00;;;11.90;;
40290;SDS011;26000;48.304;13.626;2023-02-28T07:34:21;20.65;;;12.85;;
40290;SDS011;26000;48.304;13.626;2023-02-28T07:36:47;19.10;;;12.40;;
40290;SDS011;26000;48.304;13.626;2023-02-28T07:39:12;20.77;;;12.43;;
40290;SDS011;26000;48.304;13.626;2023-02-28T07:41:38;19.75;;;12.57;;
40290;SDS011;26000;48.304;13.626;2023-02-28T07:44:08;22.35;;;12.27;;
40290;SDS011;26000;48.304;13.626;2023-02-28T07:46:35;18.63;;;12.20;;
40290;SDS011;26000;48.304;13.626;2023-02-28T07:49:01;22.48;;;12.30;;
40290;SDS011;26000;48.304;13.626;2023-02-28T07:51:28;20.00;;;12.10;;
40290;SDS011;26000;48.304;13.626;2023-02-28T07:53:54;18.67;;;12.18;;
40290;SDS011;26000;48.304;13.626;2023-02-28T07:56:20;20.73;;;12.77;;
40290;SDS011;26000;48.304;13.626;2023-02-28T07:58:46;21.25;;;13.20;;
40290;SDS011;26000;48.304;13.626;2023-02-28T08:01:11;20.98;;;12.88;;
40290;SDS011;26000;48.304;13.626;2023-02-28T08:03:37;21.23;;;12.57;;
40290;SDS011;26000;48.304;13.626;2023-02-28T08:06:04;18.48;;;12.07;;
40290;SDS011;26000;48.304;13.626;2023-02-28T08:08:31;20.95;;;12.27;;
40290;SDS011;26000;48.304;13.626;2023-02-28T08:11:01;19.20;;;12.18;;
40290;SDS011;26000;48.304;13.626;2023-02-28T08:13:28;20.00;;;12.32;;
40290;SDS011;26000;48.304;13.626;2023-02-28T08:15:55;19.38;;;12.05;;
40290;SDS011;26000;48.304;13.626;2023-02-28T08:18:21;18.33;;;11.70;;
40290;SDS011;26000;48.304;13.626;2023-02-28T08:20:47;19.92;;;12.43;;
40290;SDS011;26000;48.304;13.626;2023-02-28T08:23:13;22.15;;;12.50;;
40290;SDS011;26000;48.304;13.626;2023-02-28T08:25:38;20.67;;;12.40;;
40290;SDS011;26000;48.304;13.626;2023-02-28T08:28:04;20.75;;;11.93;;
40290;SDS011;26000;48.304;13.626;2023-02-28T08:30:30;21.05;;;12.18;;
40290;SDS011;26000;48.304;13.626;2023-02-28T08:32:55;19.75;;;12.30;;
40290;SDS011;26000;48.304;13.626;2023-02-28T08:35:21;17.92;;;12.25;;
40290;SDS011;26000;48.304;13.626;2023-02-28T08:37:47;19.63;;;12.70;;
40290;SDS011;26000;48.304;13.626;2023-02-28T08:40:14;19.70;;;12.38;;
40290;SDS011;26000;48.304;13.626;2023-02-28T08:42:47;20.50;;;12.52;;
40290;SDS011;26000;48.304;13.626;2023-02-28T08:45:13;19.90;;;11.98;;
40290;SDS011;26000;48.304;13.626;2023-02-28T08:47:40;18.77;;;12.32;;
40290;SDS011;26000;48.304;13.626;2023-02-28T08:50:06;20.25;;;12.88;;
40290;SDS011;26000;48.304;13.626;2023-02-28T08:52:32;19.90;;;12.77;;
40290;SDS011;26000;48.304;13.626;2023-02-28T08:54:58;22.67;;;12.82;;
40290;SDS011;26000;48.304;13.626;2023-02-28T08:57:24;21.98;;;13.48;;
40290;SDS011;26000;48.304;13.626;2023-02-28T08:59:51;19.70;;;12.32;;
40290;SDS011;26000;48.304;13.626;2023-02-28T09:02:17;19.33;;;12.77;;
40290;SDS011;26000;48.304;13.626;2023-02-28T09:04:42;20.17;;;12.77;;
40290;SDS011;26000;48.304;13.626;2023-02-28T09:07:10;20.30;;;12.23;;
40290;SDS011;26000;48.304;13.626;2023-02-28T09:09:36;19.00;;;12.48;;
40290;SDS011;26000;48.304;13.626;2023-02-28T09:12:02;20.13;;;12.85;;
40290;SDS011;26000;48.304;13.626;2023-02-28T09:14:27;18.55;;;12.90;;
40290;SDS011;26000;48.304;13.626;2023-02-28T09:16:53;19.30;;;12.85;;
40290;SDS011;26000;48.304;13.626;2023-02-28T09:19:19;19.50;;;12.63;;
40290;SDS011;26000;48.304;13.626;2023-02-28T09:21:45;25.30;;;13.65;;
40290;SDS011;26000;48.304;13.626;2023-02-28T09:24:10;19.92;;;12.73;;
40290;SDS011;26000;48.304;13.626;2023-02-28T09:26:39;18.20;;;12.60;;
40290;SDS011;26000;48.304;13.626;2023-02-28T09:29:05;19.88;;;13.07;;
40290;SDS011;26000;48.304;13.626;2023-02-28T09:31:31;20.20;;;13.55;;
40290;SDS011;26000;48.304;13.626;2023-02-28T09:33:57;19.58;;;12.80;;
40290;SDS011;26000;48.304;13.626;2023-02-28T09:36:24;24.20;;;13.82;;
40290;SDS011;26000;48.304;13.626;2023-02-28T09:38:51;20.52;;;13.70;;
40290;SDS011;26000;48.304;13.626;2023-02-28T09:43:53;22.10;;;13.10;;
40290;SDS011;26000;48.304;13.626;2023-02-28T09:48:56;18.13;;;12.52;;
40290;SDS011;26000;48.304;13.626;2023-02-28T09:53:54;19.50;;;12.98;;
40290;SDS011;26000;48.304;13.626;2023-02-28T09:56:21;21.98;;;13.23;;
40290;SDS011;26000;48.304;13.626;2023-02-28T10:01:54;21.48;;;13.18;;
40290;SDS011;26000;48.304;13.626;2023-02-28T10:04:47;19.13;;;12.93;;
40290;SDS011;26000;48.304;13.626;2023-02-28T10:09:57;19.95;;;13.48;;
40290;SDS011;26000;48.304;13.626;2023-02-28T10:12:27;19.45;;;13.27;;
40290;SDS011;26000;48.304;13.626;2023-02-28T10:14:55;22.85;;;13.85;;
40290;SDS011;26000;48.304;13.626;2023-02-28T10:17:25;21.60;;;13.40;;
40290;SDS011;26000;48.304;13.626;2023-02-28T10:19:57;21.98;;;13.00;;
40290;SDS011;26000;48.304;13.626;2023-02-28T10:22:27;21.65;;;13.65;;
40290;SDS011;26000;48.304;13.626;2023-02-28T10:25:01;20.90;;;13.23;;
40290;SDS011;26000;48.304;13.626;2023-02-28T10:27:40;22.55;;;13.85;;
40290;SDS011;26000;48.304;13.626;2023-02-28T10:30:06;20.65;;;13.02;;
40290;SDS011;26000;48.304;13.626;2023-02-28T10:32:35;20.40;;;13.82;;
40290;SDS011;26000;48.304;13.626;2023-02-28T10:37:30;21.13;;;14.20;;
40290;SDS011;26000;48.304;13.626;2023-02-28T10:39:57;21.15;;;13.95;;
40290;SDS011;26000;48.304;13.626;2023-02-28T10:42:26;19.90;;;13.70;;
40290;SDS011;26000;48.304;13.626;2023-02-28T10:45:10;19.35;;;13.27;;
40290;SDS011;26000;48.304;13.626;2023-02-28T10:48:00;20.98;;;13.38;;
40290;SDS011;26000;48.304;13.626;2023-02-28T10:50:33;19.95;;;14.27;;
40290;SDS011;26000;48.304;13.626;2023-02-28T10:55:35;20.60;;;13.77;;
40290;SDS011;26000;48.304;13.626;2023-02-28T10:58:01;20.75;;;13.57;;
40290;SDS011;26000;48.304;13.626;2023-02-28T11:00:31;16.60;;;12.50;;
40290;SDS011;26000;48.304;13.626;2023-02-28T11:02:59;20.45;;;13.00;;
40290;SDS011;26000;48.304;13.626;2023-02-28T11:05:29;20.65;;;14.68;;
40290;SDS011;26000;48.304;13.626;2023-02-28T11:10:39;19.13;;;13.55;;
40290;SDS011;26000;48.304;13.626;2023-02-28T11:13:19;21.15;;;14.48;;
40290;SDS011;26000;48.304;13.626;2023-02-28T11:15:55;20.27;;;13.07;;
40290;SDS011;26000;48.304;13.626;2023-02-28T11:21:32;21.10;;;13.93;;
40290;SDS011;26000;48.304;13.626;2023-02-28T11:26:52;19.50;;;13.32;;
40290;SDS011;26000;48.304;13.626;2023-02-28T11:29:19;19.63;;;13.63;;
40290;SDS011;26000;48.304;13.626;2023-02-28T11:34:33;21.13;;;14.05;;
40290;SDS011;26000;48.304;13.626;2023-02-28T11:37:01;21.15;;;14.15;;
40290;SDS011;26000;48.304;13.626;2023-02-28T11:39:30;23.13;;;14.63;;
40290;SDS011;26000;48.304;13.626;2023-02-28T11:47:38;19.55;;;13.88;;
40290;SDS011;26000;48.304;13.626;2023-02-28T11:55:56;18.73;;;13.23;;
40290;SDS011;26000;48.304;13.626;2023-02-28T12:03:45;23.23;;;15.50;;
40290;SDS011;26000;48.304;13.626;2023-02-28T12:24:38;20.35;;;15.00;;
40290;SDS011;26000;48.304;13.626;2023-02-28T12:27:09;19.30;;;13.52;;
40290;SDS011;26000;48.304;13.626;2023-02-28T12:29:49;18.15;;;12.65;;
40290;SDS011;26000;48.304;13.626;2023-02-28T12:32:33;20.23;;;12.93;;
40290;SDS011;26000;48.304;13.626;2023-02-28T12:37:54;18.88;;;13.57;;
40290;SDS011;26000;48.304;13.626;2023-02-28T12:40:26;21.67;;;14.52;;
40290;SDS011;26000;48.304;13.626;2023-02-28T12:43:13;20.15;;;14.00;;
40290;SDS011;26000;48.304;13.626;2023-02-28T12:48:31;20.30;;;13.40;;
40290;SDS011;26000;48.304;13.626;2023-02-28T12:51:21;19.85;;;13.55;;
40290;SDS011;26000;48.304;13.626;2023-02-28T12:56:35;21.52;;;14.80;;
40290;SDS011;26000;48.304;13.626;2023-02-28T12:59:22;21.17;;;14.70;;
40290;SDS011;26000;48.304;13.626;2023-02-28T13:05:41;22.67;;;15.55;;
40290;SDS011;26000;48.304;13.626;2023-02-28T13:10:45;24.17;;;15.75;;
40290;SDS011;26000;48.304;13.626;2023-02-28T13:13:18;23.50;;;15.52;;
40290;SDS011;26000;48.304;13.626;2023-02-28T13:16:03;24.35;;;15.93;;
40290;SDS011;26000;48.304;13.626;2023-02-28T13:21:02;21.23;;;15.30;;
40290;SDS011;26000;48.304;13.626;2023-02-28T13:26:17;22.13;;;15.45;;
40290;SDS011;26000;48.304;13.626;2023-02-28T13:31:19;28.38;;;16.33;;
40290;SDS011;26000;48.304;13.626;2023-02-28T13:41:48;22.05;;;15.55;;
40290;SDS011;26000;48.304;13.626;2023-02-28T13:44:20;25.05;;;16.50;;
40290;SDS011;26000;48.304;13.626;2023-02-28T14:05:42;23.05;;;15.77;;
40290;SDS011;26000;48.304;13.626;2023-02-28T14:08:14;23.60;;;16.40;;
40290;SDS011;26000;48.304;13.626;2023-02-28T14:10:46;21.42;;;15.30;;
40290;SDS011;26000;48.304;13.626;2023-02-28T14:16:16;22.75;;;15.73;;
40290;SDS011;26000;48.304;13.626;2023-02-28T14:18:49;21.67;;;14.85;;
40290;SDS011;26000;48.304;13.626;2023-02-28T14:21:27;24.45;;;16.52;;
40290;SDS011;26000;48.304;13.626;2023-02-28T14:24:03;25.42;;;16.27;;
40290;SDS011;26000;48.304;13.626;2023-02-28T14:32:33;23.85;;;16.92;;
40290;SDS011;26000;48.304;13.626;2023-02-28T14:35:17;26.25;;;18.02;;
40290;SDS011;26000;48.304;13.626;2023-02-28T14:38:05;29.75;;;17.85;;
40290;SDS011;26000;48.304;13.626;2023-02-28T14:40:38;25.35;;;17.58;;
40290;SDS011;26000;48.304;13.626;2023-02-28T14:43:15;27.40;;;18.10;;
40290;SDS011;26000;48.304;13.626;2023-02-28T14:45:51;27.92;;;18.60;;
40290;SDS011;26000;48.304;13.626;2023-02-28T14:48:20;27.13;;;18.00;;
40290;SDS011;26000;48.304;13.626;2023-02-28T14:50:48;27.60;;;18.42;;
40290;SDS011;26000;48.304;13.626;2023-02-28T14:53:17;26.25;;;18.02;;
40290;SDS011;26000;48.304;13.626;2023-02-28T14:55:45;28.35;;;19.25;;
40290;SDS011;26000;48.304;13.626;2023-02-28T14:58:19;30.45;;;19.45;;
40290;SDS011;26000;48.304;13.626;2023-02-28T15:00:47;30.73;;;19.45;;
40290;SDS011;26000;48.304;13.626;2023-02-28T15:03:18;29.90;;;19.65;;
40290;SDS011;26000;48.304;13.626;2023-02-28T15:05:52;28.77;;;19.65;;
40290;SDS011;26000;48.304;13.626;2023-02-28T15:10:53;30.67;;;19.30;;
40290;SDS011;26000;48.304;13.626;2023-02-28T15:13:47;29.17;;;19.48;;
40290;SDS011;26000;48.304;13.626;2023-02-28T15:18:50;30.80;;;20.52;;
40290;SDS011;26000;48.304;13.626;2023-02-28T15:21:34;31.90;;;20.42;;
40290;SDS011;26000;48.304;13.626;2023-02-28T15:24:08;32.20;;;21.02;;
40290;SDS011;26000;48.304;13.626;2023-02-28T15:26:41;32.08;;;21.20;;
40290;SDS011;26000;48.304;13.626;2023-02-28T15:29:12;26.88;;;19.13;;
40290;SDS011;26000;48.304;13.626;2023-02-28T15:31:45;28.25;;;20.15;;
40290;SDS011;26000;48.304;13.626;2023-02-28T15:34:22;31.73;;;20.00;;
40290;SDS011;26000;48.304;13.626;2023-02-28T15:39:52;32.22;;;19.80;;
40290;SDS011;26000;48.304;13.626;2023-02-28T15:42:20;29.35;;;19.77;;
40290;SDS011;26000;48.304;13.626;2023-02-28T15:44:46;29.00;;;20.23;;
40290;SDS011;26000;48.304;13.626;2023-02-28T15:47:16;29.05;;;20.27;;
40290;SDS011;26000;48.304;13.626;2023-02-28T15:49:46;34.38;;;20.35;;
40290;SDS011;26000;48.304;13.626;2023-02-28T15:52:43;30.65;;;20.38;;
40290;SDS011;26000;48.304;13.626;2023-02-28T15:55:11;29.70;;;20.20;;
40290;SDS011;26000;48.304;13.626;2023-02-28T15:57:38;27.73;;;19.08;;
40290;SDS011;26000;48.304;13.626;2023-02-28T16:00:06;31.83;;;20.50;;
40290;SDS011;26000;48.304;13.626;2023-02-28T16:02:38;28.60;;;19.85;;
40290;SDS011;26000;48.304;13.626;2023-02-28T16:07:36;31.38;;;20.45;;
40290;SDS011;26000;48.304;13.626;2023-02-28T16:10:04;30.67;;;19.70;;
40290;SDS011;26000;48.304;13.626;2023-02-28T16:12:31;30.83;;;20.25;;
40290;SDS011;26000;48.304;13.626;2023-02-28T16:15:06;31.23;;;21.08;;
40290;SDS011;26000;48.304;13.626;2023-02-28T16:17:53;26.95;;;18.83;;
40290;SDS011;26000;48.304;13.626;2023-02-28T16:20:30;30.77;;;20.45;;
40290;SDS011;26000;48.304;13.626;2023-02-28T16:22:55;29.42;;;20.20;;
40290;SDS011;26000;48.304;13.626;2023-02-28T16:25:26;30.85;;;19.45;;
40290;SDS011;26000;48.304;13.626;2023-02-28T16:27:58;29.15;;;19.92;;
40290;SDS011;26000;48.304;13.626;2023-02-28T16:30:26;28.77;;;20.90;;
40290;SDS011;26000;48.304;13.626;2023-02-28T16:32:54;30.20;;;20.85;;
40290;SDS011;26000;48.304;13.626;2023-02-28T16:35:20;33.63;;;22.45;;
40290;SDS011;26000;48.304;13.626;2023-02-28T16:37:47;33.42;;;22.38;;
40290;SDS011;26000;48.304;13.626;2023-02-28T16:40:13;30.85;;;20.88;;
40290;SDS011;26000;48.304;13.626;2023-02-28T16:42:41;31.42;;;20.15;;
40290;SDS011;26000;48.304;13.626;2023-02-28T16:45:11;32.92;;;21.75;;
40290;SDS011;26000;48.304;13.626;2023-02-28T16:47:42;34.08;;;20.40;;
40290;SDS011;26000;48.304;13.626;2023-02-28T16:50:12;29.13;;;18.77;;
40290;SDS011;26000;48.304;13.626;2023-02-28T16:52:42;28.50;;;19.05;;
40290;SDS011;26000;48.304;13.626;2023-02-28T16:55:07;30.10;;;18.92;;
40290;SDS011;26000;48.304;13.626;2023-02-28T16:57:33;27.65;;;18.50;;
40290;SDS011;26000;48.304;13.626;2023-02-28T16:59:59;26.52;;;17.90;;
40290;SDS011;26000;48.304;13.626;2023-02-28T17:02:25;27.08;;;18.42;;
40290;SDS011;26000;48.304;13.626;2023-02-28T17:04:50;27.00;;;18.77;;
40290;SDS011;26000;48.304;13.626;2023-02-28T17:07:16;29.55;;;19.33;;
40290;SDS011;26000;48.304;13.626;2023-02-28T17:09:42;26.63;;;17.73;;
40290;SDS011;26000;48.304;13.626;2023-02-28T17:12:08;28.83;;;19.95;;
40290;SDS011;26000;48.304;13.626;2023-02-28T17:14:36;28.58;;;18.70;;
40290;SDS011;26000;48.304;13.626;2023-02-28T17:17:04;24.38;;;17.58;;
40290;SDS011;26000;48.304;13.626;2023-02-28T17:19:30;24.58;;;17.30;;